createdAt,value
2024-02-21T00:01:00.786Z,5.70
2024-02-21T00:03:28.518Z,5.75
2024-02-21T00:05:56.176Z,5.74
2024-02-21T00:08:24.106Z,5.81
2024-02-21T00:10:52.153Z,5.86
2024-02-21T00:13:20.245Z,5.81
2024-02-21T00:15:48.056Z,5.73
2024-02-21T00:18:15.855Z,5.70
2024-02-21T00:20:43.674Z,5.67
2024-02-21T00:23:11.436Z,5.68
2024-02-21T00:25:39.426Z,5.68
2024-02-21T00:28:07.885Z,5.71
2024-02-21T00:30:35.676Z,5.67
2024-02-21T00:33:03.606Z,5.65
2024-02-21T00:35:31.492Z,5.62
2024-02-21T00:38:01.051Z,5.61
2024-02-21T00:40:29.022Z,5.64
2024-02-21T00:42:56.927Z,5.65
2024-02-21T00:45:24.885Z,5.62
2024-02-21T00:47:52.703Z,5.62
2024-02-21T00:50:20.627Z,5.61
2024-02-21T00:52:48.552Z,5.59
2024-02-21T00:55:16.558Z,5.57
2024-02-21T00:57:44.309Z,5.53
2024-02-21T01:00:12.890Z,5.51
2024-02-21T01:02:40.561Z,5.49
2024-02-21T01:05:09.048Z,5.49
2024-02-21T01:07:37.048Z,5.49
2024-02-21T01:10:05.477Z,5.50
2024-02-21T01:12:33.260Z,5.53
2024-02-21T01:15:00.998Z,5.53
2024-02-21T01:17:28.796Z,5.54
2024-02-21T01:19:56.779Z,5.53
2024-02-21T01:22:24.674Z,5.52
2024-02-21T01:24:52.461Z,5.52
2024-02-21T01:27:20.120Z,5.55
2024-02-21T01:29:49.220Z,5.50
2024-02-21T01:32:17.700Z,5.52
2024-02-21T01:34:45.493Z,5.48
2024-02-21T01:37:13.364Z,5.47
2024-02-21T01:39:41.191Z,5.48
2024-02-21T01:42:10.178Z,5.53
2024-02-21T01:44:39.592Z,5.57
2024-02-21T01:47:07.305Z,5.60
2024-02-21T01:49:35.329Z,5.59
2024-02-21T01:52:03.478Z,5.59
2024-02-21T01:54:31.343Z,5.59
2024-02-21T01:56:59.110Z,5.57
2024-02-21T01:59:26.869Z,5.60
2024-02-21T02:01:54.690Z,5.61
2024-02-21T02:04:22.640Z,5.60
2024-02-21T02:06:50.622Z,5.62
2024-02-21T02:09:18.737Z,5.63
2024-02-21T02:11:46.388Z,5.50
2024-02-21T02:14:14.061Z,5.50
2024-02-21T02:16:42.057Z,5.54
2024-02-21T02:19:14.083Z,5.54
2024-02-21T02:21:44.512Z,5.53
2024-02-21T02:24:12.181Z,5.63
2024-02-21T02:26:39.940Z,5.57
2024-02-21T02:29:07.807Z,5.62
2024-02-21T02:31:36.797Z,5.61
2024-02-21T02:34:05.185Z,5.63
2024-02-21T02:36:37.337Z,5.62
2024-02-21T02:39:04.996Z,5.52
2024-02-21T02:41:32.719Z,5.53
2024-02-21T02:44:00.551Z,5.50
2024-02-21T02:46:28.324Z,5.47
2024-02-21T02:48:56.226Z,5.41
2024-02-21T02:51:24.115Z,5.36
2024-02-21T02:53:51.876Z,5.33
2024-02-21T02:56:19.641Z,5.32
2024-02-21T02:58:47.832Z,5.29
2024-02-21T03:01:16.555Z,5.27
2024-02-21T03:03:44.795Z,5.22
2024-02-21T03:06:12.583Z,5.23
2024-02-21T03:08:41.430Z,5.27
2024-02-21T03:11:10.192Z,5.24
2024-02-21T03:13:38.311Z,5.20
2024-02-21T03:16:07.272Z,5.20
2024-02-21T03:18:35.192Z,5.21
2024-02-21T03:21:03.102Z,5.21
2024-02-21T03:23:30.761Z,5.19
2024-02-21T03:25:58.548Z,5.21
2024-02-21T03:28:26.308Z,5.20
2024-02-21T03:30:54.154Z,5.26
2024-02-21T03:33:22.645Z,5.30
2024-02-21T03:35:50.416Z,5.31
2024-02-21T03:38:18.160Z,5.31
2024-02-21T03:40:45.966Z,5.32
2024-02-21T03:43:13.721Z,5.35
2024-02-21T03:45:41.544Z,5.34
2024-02-21T03:48:09.379Z,5.34
2024-02-21T03:50:37.332Z,5.37
2024-02-21T03:53:05.169Z,5.35
2024-02-21T03:55:33.062Z,5.32
2024-02-21T03:58:00.871Z,5.32
2024-02-21T04:00:28.658Z,5.28
2024-02-21T04:02:57.210Z,5.20
2024-02-21T04:05:25.152Z,5.20
2024-02-21T04:07:53.597Z,5.18
2024-02-21T04:10:21.469Z,5.25
2024-02-21T04:12:51.856Z,5.30
2024-02-21T04:15:20.677Z,5.25
2024-02-21T04:17:48.840Z,5.27
2024-02-21T04:20:17.393Z,5.26
2024-02-21T04:22:46.322Z,5.21
2024-02-21T04:25:14.264Z,5.16
2024-02-21T04:27:42.109Z,5.14
2024-02-21T04:30:11.102Z,5.16
2024-02-21T04:32:39.433Z,5.25
2024-02-21T04:35:08.594Z,5.21
2024-02-21T04:37:36.469Z,5.13
2024-02-21T04:40:05.021Z,5.19
2024-02-21T04:42:32.782Z,5.19
2024-02-21T04:45:00.554Z,5.21
2024-02-21T04:47:29.862Z,5.22
2024-02-21T04:49:57.664Z,5.23
2024-02-21T04:52:25.517Z,5.25
2024-02-21T04:54:53.392Z,5.27
2024-02-21T04:57:21.193Z,5.25
2024-02-21T04:59:49.177Z,5.26
2024-02-21T05:02:17.123Z,5.30
2024-02-21T05:04:45.971Z,5.32
2024-02-21T05:07:13.971Z,5.28
2024-02-21T05:09:43.493Z,5.29
2024-02-21T05:12:11.459Z,5.25
2024-02-21T05:14:39.247Z,5.27
2024-02-21T05:17:07.120Z,5.24
2024-02-21T05:19:35.080Z,5.26
2024-02-21T05:22:02.826Z,5.30
2024-02-21T05:24:31.293Z,5.34
2024-02-21T05:26:59.061Z,5.36
2024-02-21T05:29:26.821Z,5.38
2024-02-21T05:31:54.862Z,5.33
2024-02-21T05:34:23.316Z,5.36
2024-02-21T05:36:51.236Z,5.47
2024-02-21T05:39:19.000Z,5.42
2024-02-21T05:41:46.878Z,5.40
2024-02-21T05:44:14.631Z,5.42
2024-02-21T05:46:42.415Z,5.46
2024-02-21T05:49:10.375Z,5.46
2024-02-21T05:51:38.324Z,5.49
2024-02-21T05:54:06.180Z,5.48
2024-02-21T05:56:33.853Z,5.44
2024-02-21T05:59:01.700Z,5.49
2024-02-21T06:01:29.637Z,5.51
2024-02-21T06:03:57.500Z,5.51
2024-02-21T06:06:25.584Z,5.56
2024-02-21T06:08:53.474Z,5.60
2024-02-21T06:11:21.363Z,5.62
2024-02-21T06:13:49.765Z,5.55
2024-02-21T06:16:17.643Z,5.54
2024-02-21T06:18:45.465Z,5.63
2024-02-21T06:21:14.033Z,5.70
2024-02-21T06:23:41.817Z,5.58
2024-02-21T06:26:09.894Z,5.53
2024-02-21T06:28:37.723Z,5.52
2024-02-21T06:31:05.608Z,5.63
2024-02-21T06:37:55.258Z,5.69
2024-02-21T06:40:23.895Z,5.74
2024-02-21T06:42:51.946Z,5.70
2024-02-21T06:45:19.776Z,5.68
2024-02-21T06:47:48.764Z,5.65
2024-02-21T06:50:17.223Z,5.64
2024-02-21T06:52:45.176Z,5.68
2024-02-21T06:55:13.314Z,5.70
2024-02-21T06:57:41.289Z,5.77
2024-02-21T07:00:09.969Z,5.81
2024-02-21T07:02:37.705Z,5.83
2024-02-21T07:05:06.871Z,5.87
2024-02-21T07:07:36.929Z,5.89
2024-02-21T07:10:06.133Z,5.96
2024-02-21T07:12:34.108Z,6.01
2024-02-21T07:15:03.055Z,6.03
2024-02-21T07:17:32.048Z,6.03
2024-02-21T07:20:00.800Z,6.04
2024-02-21T07:22:28.785Z,6.07
2024-02-21T07:24:56.611Z,6.04
2024-02-21T07:27:24.780Z,6.09
2024-02-21T07:29:52.645Z,6.08
2024-02-21T07:32:20.510Z,6.13
2024-02-21T07:34:49.872Z,6.18
2024-02-21T07:37:17.808Z,6.16
2024-02-21T07:39:45.850Z,6.19
2024-02-21T07:42:13.920Z,6.32
2024-02-21T07:44:41.802Z,6.39
2024-02-21T07:47:10.293Z,6.48
2024-02-21T07:49:45.953Z,6.55
2024-02-21T07:52:13.836Z,6.62
2024-02-21T07:54:42.370Z,6.71
2024-02-21T07:57:10.150Z,6.74
2024-02-21T07:59:37.964Z,6.82
2024-02-21T08:02:08.375Z,6.86
2024-02-21T08:04:36.570Z,6.87
2024-02-21T08:07:11.325Z,6.91
2024-02-21T08:09:41.529Z,6.84
2024-02-21T08:12:09.803Z,6.82
2024-02-21T08:14:37.797Z,6.86
2024-02-21T08:17:05.831Z,6.95
2024-02-21T08:19:34.020Z,7.05
2024-02-21T08:22:02.089Z,7.09
2024-02-21T08:24:29.953Z,7.09
2024-02-21T08:26:57.917Z,7.07
2024-02-21T08:29:25.831Z,7.04
2024-02-21T08:31:55.339Z,7.04
2024-02-21T08:34:23.252Z,7.04
2024-02-21T08:36:51.501Z,7.04
2024-02-21T08:39:19.404Z,7.08
2024-02-21T08:41:56.005Z,7.10
2024-02-21T08:44:29.644Z,7.12
2024-02-21T08:46:58.230Z,7.08
2024-02-21T08:49:33.832Z,7.09
2024-02-21T08:52:04.775Z,7.13
2024-02-21T08:54:36.477Z,7.22
2024-02-21T08:57:05.084Z,7.28
2024-02-21T08:59:33.493Z,7.31
2024-02-21T09:02:01.534Z,7.36
2024-02-21T09:04:30.113Z,7.40
2024-02-21T09:06:58.082Z,7.38
2024-02-21T09:09:28.735Z,7.41
2024-02-21T09:11:57.586Z,7.44
2024-02-21T09:14:25.540Z,7.49
2024-02-21T09:16:53.419Z,7.56
2024-02-21T09:19:23.407Z,7.61
2024-02-21T09:21:51.708Z,7.66
2024-02-21T09:24:19.620Z,7.72
2024-02-21T09:26:47.589Z,7.76
2024-02-21T09:29:18.232Z,7.82
2024-02-21T09:31:47.270Z,7.82
2024-02-21T09:34:15.593Z,7.86
2024-02-21T09:36:44.064Z,7.95
2024-02-21T09:39:18.694Z,8.00
2024-02-21T09:41:53.670Z,8.05
2024-02-21T09:44:22.207Z,8.05
2024-02-21T09:47:05.630Z,8.06
2024-02-21T09:49:34.952Z,8.10
2024-02-21T09:52:04.392Z,8.13
2024-02-21T09:54:35.826Z,8.08
2024-02-21T09:57:08.328Z,8.04
2024-02-21T09:59:36.636Z,8.06
2024-02-21T10:02:07.147Z,7.94
2024-02-21T10:04:37.943Z,7.96
2024-02-21T10:07:06.096Z,7.94
2024-02-21T10:09:34.845Z,7.94
2024-02-21T10:12:13.508Z,7.96
2024-02-21T10:14:49.378Z,7.98
2024-02-21T10:17:23.898Z,8.04
2024-02-21T10:19:56.167Z,8.07
2024-02-21T10:22:29.752Z,8.04
2024-02-21T10:25:08.844Z,8.01
2024-02-21T10:27:38.394Z,7.97
2024-02-21T10:30:14.868Z,7.92
2024-02-21T10:32:53.664Z,7.88
2024-02-21T10:35:32.002Z,7.78
2024-02-21T10:38:00.864Z,7.83
2024-02-21T10:40:32.345Z,7.84
2024-02-21T10:43:01.789Z,7.94
2024-02-21T10:45:37.265Z,7.98
2024-02-21T10:48:15.307Z,8.06
2024-02-21T10:51:20.576Z,8.11
2024-02-21T10:53:54.549Z,8.18
2024-02-21T10:56:38.392Z,8.20
2024-02-21T10:59:08.358Z,8.29
2024-02-21T11:01:37.281Z,8.34
2024-02-21T11:04:14.443Z,8.40
2024-02-21T11:06:42.742Z,8.55
2024-02-21T11:09:11.885Z,8.62
2024-02-21T11:11:45.282Z,8.55
2024-02-21T11:14:19.802Z,8.53
2024-02-21T11:16:48.010Z,8.53
2024-02-21T11:19:29.557Z,8.51
2024-02-21T11:22:04.924Z,8.49
2024-02-21T11:24:34.078Z,8.46
2024-02-21T11:27:18.397Z,8.40
2024-02-21T11:29:46.675Z,8.33
2024-02-21T11:32:21.901Z,8.26
2024-02-21T11:35:04.076Z,8.26
2024-02-21T11:37:35.320Z,8.19
2024-02-21T11:40:12.636Z,8.17
2024-02-21T11:42:41.570Z,8.13
2024-02-21T11:45:10.710Z,8.15
2024-02-21T11:47:42.771Z,8.16
2024-02-21T11:50:15.413Z,8.20
2024-02-21T12:01:05.845Z,8.38
2024-02-21T12:03:35.497Z,8.42
2024-02-21T12:06:05.781Z,8.40
2024-02-21T12:08:46.394Z,8.37
2024-02-21T12:11:22.560Z,8.36
2024-02-21T12:14:06.788Z,8.30
2024-02-21T12:16:35.066Z,8.28
2024-02-21T12:19:05.137Z,8.26
2024-02-21T12:21:38.494Z,8.28
2024-02-21T12:24:22.516Z,8.33
2024-02-21T12:26:54.078Z,8.34
2024-02-21T12:29:22.687Z,8.38
2024-02-21T12:31:51.155Z,8.38
2024-02-21T12:34:27.226Z,8.34
2024-02-21T12:37:00.256Z,8.32
2024-02-21T12:39:30.199Z,8.30
2024-02-21T12:41:58.215Z,8.27
2024-02-21T12:44:26.293Z,8.24
2024-02-21T12:46:56.211Z,8.19
2024-02-21T12:49:25.893Z,8.15
2024-02-21T12:51:54.063Z,8.15
2024-02-21T12:54:22.499Z,8.11
2024-02-21T12:56:51.388Z,8.09
2024-02-21T12:59:19.580Z,8.14
2024-02-21T13:01:47.739Z,8.16
2024-02-21T13:04:16.051Z,8.18
2024-02-21T13:06:46.017Z,8.20
2024-02-21T13:09:15.107Z,8.25
2024-02-21T13:11:43.658Z,8.31
2024-02-21T13:14:11.678Z,8.34
2024-02-21T13:16:42.621Z,8.34
2024-02-21T13:19:12.061Z,8.37
2024-02-21T13:21:40.075Z,8.41
2024-02-21T13:24:08.067Z,8.46
2024-02-21T13:26:36.214Z,8.49
2024-02-21T13:29:04.189Z,8.50
2024-02-21T13:31:32.317Z,8.48
2024-02-21T13:34:00.324Z,8.48
2024-02-21T13:36:28.701Z,8.50
2024-02-21T13:38:59.386Z,8.54
2024-02-21T13:41:30.920Z,8.56
2024-02-21T13:48:39.126Z,8.30
2024-02-21T13:51:07.189Z,8.39
2024-02-21T13:53:36.175Z,8.37
2024-02-21T13:56:04.743Z,8.30
2024-02-21T13:58:32.822Z,8.39
2024-02-21T14:01:02.286Z,8.39
2024-02-21T14:03:30.263Z,8.41
2024-02-21T14:05:58.418Z,8.41
2024-02-21T14:08:28.491Z,8.41
2024-02-21T14:10:57.512Z,8.44
2024-02-21T14:13:25.578Z,8.46
2024-02-21T14:15:56.819Z,8.40
2024-02-21T14:18:25.668Z,8.35
2024-02-21T14:20:58.877Z,8.21
2024-02-21T14:23:27.056Z,8.31
2024-02-21T14:25:55.080Z,8.37
2024-02-21T14:28:24.487Z,8.36
2024-02-21T14:31:04.767Z,8.36
2024-02-21T14:33:35.303Z,8.38
2024-02-21T14:36:03.910Z,8.30
2024-02-21T14:38:33.527Z,8.24
2024-02-21T14:41:02.352Z,8.27
2024-02-21T14:43:30.407Z,8.15
2024-02-21T14:45:58.430Z,8.08
2024-02-21T14:48:33.063Z,7.99
2024-02-21T14:51:02.522Z,7.99
2024-02-21T14:53:35.659Z,7.89
2024-02-21T14:56:04.378Z,7.88
2024-02-21T14:58:32.972Z,7.92
2024-02-21T15:01:01.986Z,7.89
2024-02-21T15:03:30.950Z,7.86
2024-02-21T15:05:58.792Z,7.78
2024-02-21T15:08:29.070Z,7.75
2024-02-21T15:10:57.109Z,7.75
2024-02-21T15:13:25.570Z,7.72
2024-02-21T15:19:05.531Z,7.64
2024-02-21T15:21:33.524Z,7.59
2024-02-21T15:24:02.425Z,7.57
2024-02-21T15:26:31.299Z,7.56
2024-02-21T15:28:59.223Z,7.58
2024-02-21T15:31:27.174Z,7.58
2024-02-21T15:33:55.446Z,7.44
2024-02-21T15:36:24.714Z,7.44
2024-02-21T15:38:58.136Z,7.54
2024-02-21T15:42:00.939Z,7.54
2024-02-21T15:44:28.816Z,7.48
2024-02-21T15:46:56.839Z,7.48
2024-02-21T15:49:24.956Z,7.47
2024-02-21T15:51:53.015Z,7.44
2024-02-21T15:54:23.540Z,7.37
2024-02-21T15:56:53.552Z,7.39
2024-02-21T15:59:26.037Z,7.41
2024-02-21T16:01:56.389Z,7.36
2024-02-21T16:04:24.776Z,7.35
2024-02-21T16:06:53.087Z,7.36
2024-02-21T16:09:21.375Z,7.36
2024-02-21T16:11:49.413Z,7.39
2024-02-21T16:14:17.921Z,7.39
2024-02-21T16:16:46.463Z,7.42
2024-02-21T16:19:15.538Z,7.37
2024-02-21T16:21:43.476Z,7.38
2024-02-21T16:24:11.297Z,7.35
2024-02-21T16:26:39.281Z,7.25
2024-02-21T16:29:09.065Z,7.32
2024-02-21T16:31:40.133Z,7.30
2024-02-21T16:34:09.079Z,7.27
2024-02-21T16:36:39.992Z,7.28
2024-02-21T16:39:08.657Z,7.26
2024-02-21T16:41:36.941Z,7.18
2024-02-21T16:44:04.996Z,7.11
2024-02-21T16:46:32.990Z,7.08
2024-02-21T16:49:01.133Z,7.00
2024-02-21T16:51:29.087Z,6.92
2024-02-21T16:53:57.392Z,6.81
2024-02-21T16:56:25.273Z,6.73
2024-02-21T16:58:54.008Z,6.65
2024-02-21T17:01:22.013Z,6.52
2024-02-21T17:03:50.930Z,6.43
2024-02-21T17:06:19.421Z,6.35
2024-02-21T17:08:48.203Z,6.30
2024-02-21T17:11:16.661Z,6.13
2024-02-21T17:13:45.567Z,6.10
2024-02-21T17:16:13.796Z,6.01
2024-02-21T17:18:42.128Z,6.05
2024-02-21T17:21:10.575Z,6.04
2024-02-21T17:23:38.644Z,6.02
2024-02-21T17:26:09.830Z,6.01
2024-02-21T17:28:37.943Z,5.98
2024-02-21T17:31:06.062Z,5.96
2024-02-21T17:33:39.903Z,5.95
2024-02-21T17:36:11.094Z,5.97
2024-02-21T17:38:40.245Z,5.91
2024-02-21T17:41:08.298Z,6.01
2024-02-21T17:43:36.304Z,6.05
2024-02-21T17:46:05.705Z,6.07
2024-02-21T17:48:33.732Z,6.02
2024-02-21T17:51:02.241Z,5.96
2024-02-21T17:53:30.703Z,5.99
2024-02-21T17:55:58.763Z,6.01
2024-02-21T17:58:26.799Z,6.01
2024-02-21T18:00:59.023Z,6.03
2024-02-21T18:03:30.627Z,6.03
2024-02-21T18:06:00.555Z,6.02
2024-02-21T18:08:28.813Z,6.03
2024-02-21T18:10:57.340Z,5.99
2024-02-21T18:13:25.536Z,5.87
2024-02-21T18:15:54.267Z,5.76
2024-02-21T18:18:22.107Z,5.85
2024-02-21T18:20:51.794Z,5.89
2024-02-21T18:23:20.355Z,5.81
2024-02-21T18:25:48.452Z,5.90
2024-02-21T18:28:17.935Z,5.90
2024-02-21T18:30:45.891Z,5.90
2024-02-21T18:33:13.769Z,5.88
2024-02-21T18:35:41.844Z,5.89
2024-02-21T18:38:09.860Z,5.90
2024-02-21T18:40:39.420Z,5.89
2024-02-21T18:43:07.569Z,5.86
2024-02-21T18:45:35.606Z,5.86
2024-02-21T18:48:04.138Z,5.82
2024-02-21T18:50:32.372Z,5.78
2024-02-21T18:53:01.324Z,5.77
2024-02-21T18:55:29.378Z,5.80
2024-02-21T18:57:57.220Z,5.77
2024-02-21T19:00:26.213Z,5.76
2024-02-21T19:02:54.180Z,5.74
2024-02-21T19:05:25.091Z,5.70
2024-02-21T19:07:53.197Z,5.68
2024-02-21T19:10:22.360Z,5.67
2024-02-21T19:12:55.490Z,5.70
2024-02-21T19:15:23.645Z,5.75
2024-02-21T19:17:51.501Z,5.79
2024-02-21T19:20:20.182Z,5.79
2024-02-21T19:22:48.780Z,5.73
2024-02-21T19:25:22.694Z,5.79
2024-02-21T19:27:50.770Z,5.85
2024-02-21T19:30:18.923Z,5.74
2024-02-21T19:32:47.128Z,5.62
2024-02-21T19:35:15.235Z,5.59
2024-02-21T19:37:43.367Z,5.52
2024-02-21T19:40:11.536Z,5.55
2024-02-21T19:42:39.432Z,5.58
2024-02-21T19:45:08.398Z,5.54
2024-02-21T19:47:39.260Z,5.53
2024-02-21T19:50:07.804Z,5.50
2024-02-21T19:52:35.884Z,5.48
2024-02-21T19:55:03.916Z,5.46
2024-02-21T19:57:31.785Z,5.47
2024-02-21T20:00:12.260Z,5.47
2024-02-21T20:02:44.172Z,5.49
2024-02-21T20:05:13.837Z,5.51
2024-02-21T20:07:42.386Z,5.55
2024-02-21T20:14:49.296Z,5.64
2024-02-21T20:17:17.194Z,5.75
2024-02-21T20:19:45.270Z,5.76
2024-02-21T20:22:13.304Z,5.79
2024-02-21T20:24:41.569Z,5.75
2024-02-21T20:27:09.436Z,5.70
2024-02-21T20:29:37.301Z,5.69
2024-02-21T20:32:05.747Z,5.70
2024-02-21T20:34:34.763Z,5.65
2024-02-21T20:37:03.244Z,5.65
2024-02-21T20:39:32.151Z,5.67
2024-02-21T20:42:00.108Z,5.71
2024-02-21T20:44:28.621Z,5.74
2024-02-21T20:46:56.617Z,5.74
2024-02-21T20:49:26.563Z,5.79
2024-02-21T20:51:55.452Z,5.76
2024-02-21T20:54:23.335Z,5.74
2024-02-21T20:56:51.191Z,5.75
2024-02-21T20:59:24.801Z,5.78
2024-02-21T21:02:02.045Z,5.78
2024-02-21T21:04:32.253Z,5.77
2024-02-21T21:07:01.030Z,5.79
2024-02-21T21:09:29.056Z,5.77
2024-02-21T21:11:57.285Z,5.73
2024-02-21T21:14:28.197Z,5.70
2024-02-21T21:16:56.483Z,5.73
2024-02-21T21:19:24.720Z,5.72
2024-02-21T21:21:54.524Z,5.77
2024-02-21T21:24:22.272Z,5.70
2024-02-21T21:26:50.037Z,5.73
2024-02-21T21:29:17.991Z,5.77
2024-02-21T21:31:45.993Z,5.81
2024-02-21T21:34:14.464Z,5.79
2024-02-21T21:36:42.339Z,5.74
2024-02-21T21:39:10.300Z,5.74
2024-02-21T21:41:38.156Z,5.75
2024-02-21T21:44:05.960Z,5.75
2024-02-21T21:46:34.736Z,5.73
2024-02-21T21:49:02.523Z,5.68
2024-02-21T21:51:30.945Z,5.64
2024-02-21T21:53:58.701Z,5.68
2024-02-21T21:56:26.497Z,5.65
2024-02-21T21:58:54.308Z,5.62
2024-02-21T22:01:22.149Z,5.66
2024-02-21T22:03:49.961Z,5.65
2024-02-21T22:06:18.135Z,5.61
2024-02-21T22:08:48.025Z,5.63
2024-02-21T22:11:18.350Z,5.66
2024-02-21T22:13:46.683Z,5.70
2024-02-21T22:16:14.720Z,5.69
2024-02-21T22:18:43.132Z,5.70
2024-02-21T22:21:11.278Z,5.74
2024-02-21T22:23:40.739Z,5.72
2024-02-21T22:26:08.916Z,5.74
2024-02-21T22:28:36.787Z,5.75
2024-02-21T22:31:05.063Z,5.74
2024-02-21T22:33:32.843Z,5.77
2024-02-21T22:36:00.604Z,5.81
2024-02-21T22:38:28.360Z,5.79
2024-02-21T22:40:57.737Z,5.78
2024-02-21T22:43:25.649Z,5.79
2024-02-21T22:45:55.819Z,5.81
2024-02-21T22:48:23.828Z,5.81
2024-02-21T22:50:51.680Z,5.82
2024-02-21T22:53:19.453Z,5.82
2024-02-21T22:55:47.238Z,5.84
2024-02-21T22:58:15.081Z,5.87
2024-02-21T23:00:45.448Z,5.92
2024-02-21T23:03:13.228Z,5.97
2024-02-21T23:05:41.961Z,5.94
2024-02-21T23:08:10.067Z,5.96
2024-02-21T23:10:37.848Z,5.98
2024-02-21T23:13:05.527Z,5.99
2024-02-21T23:15:33.319Z,6.04
2024-02-21T23:18:01.317Z,5.85
2024-02-21T23:20:30.301Z,5.82
2024-02-21T23:22:58.213Z,5.81
2024-02-21T23:25:26.207Z,5.81
2024-02-21T23:27:53.953Z,5.82
2024-02-21T23:30:21.719Z,5.85
2024-02-21T23:32:49.566Z,5.89
2024-02-21T23:35:17.469Z,5.96
2024-02-21T23:37:45.222Z,5.97
2024-02-21T23:40:14.122Z,5.93
2024-02-21T23:42:42.575Z,5.94
2024-02-21T23:45:12.024Z,5.95
2024-02-21T23:47:40.084Z,5.98
2024-02-21T23:50:08.444Z,5.97
2024-02-21T23:52:36.323Z,5.97
2024-02-21T23:55:04.670Z,5.97
2024-02-21T23:57:32.432Z,5.95
